createdAt,value
2019-05-17T00:02:12.569Z,8.01
2019-05-17T00:04:43.464Z,7.96
2019-05-17T00:07:16.756Z,7.95
2019-05-17T00:09:47.887Z,7.92
2019-05-17T00:12:19.190Z,7.89
2019-05-17T00:14:50.188Z,7.88
2019-05-17T00:17:22.617Z,7.84
2019-05-17T00:19:53.788Z,7.80
2019-05-17T00:22:26.878Z,7.75
2019-05-17T00:24:57.845Z,7.66
2019-05-17T00:27:28.873Z,7.63
2019-05-17T00:30:00.131Z,7.64
2019-05-17T00:32:31.091Z,7.62
2019-05-17T00:35:02.333Z,7.60
2019-05-17T00:37:33.313Z,7.57
2019-05-17T00:40:08.784Z,7.55
2019-05-17T00:42:39.692Z,7.53
2019-05-17T00:45:11.003Z,7.50
2019-05-17T00:47:42.149Z,7.45
2019-05-17T00:50:12.627Z,7.44
2019-05-17T00:52:43.988Z,7.43
2019-05-17T00:55:17.304Z,7.40
2019-05-17T00:57:48.084Z,7.39
2019-05-17T01:00:19.545Z,7.36
2019-05-17T01:02:50.779Z,7.34
2019-05-17T01:05:21.766Z,7.36
2019-05-17T01:07:52.907Z,7.32
2019-05-17T01:10:23.904Z,7.32
2019-05-17T01:12:57.400Z,7.25
2019-05-17T01:15:27.936Z,7.22
2019-05-17T01:17:59.275Z,7.16
2019-05-17T01:20:32.944Z,7.14
2019-05-17T01:23:04.263Z,7.10
2019-05-17T01:25:36.844Z,7.06
2019-05-17T01:28:07.857Z,7.03
2019-05-17T01:30:39.258Z,6.96
2019-05-17T01:33:10.217Z,6.89
2019-05-17T01:35:41.323Z,6.85
2019-05-17T01:38:12.464Z,6.84
2019-05-17T01:40:43.942Z,6.79
2019-05-17T01:43:16.623Z,6.79
2019-05-17T01:45:48.152Z,6.79
2019-05-17T01:48:19.043Z,6.78
2019-05-17T01:50:50.130Z,6.81
2019-05-17T01:53:21.188Z,6.77
2019-05-17T01:55:52.656Z,6.70
2019-05-17T01:58:23.586Z,6.62
2019-05-17T02:00:53.680Z,6.57
2019-05-17T02:03:26.749Z,6.53
2019-05-17T02:05:57.503Z,6.48
2019-05-17T02:08:29.347Z,6.44
2019-05-17T02:11:00.267Z,6.38
2019-05-17T02:13:31.500Z,6.37
2019-05-17T02:16:02.576Z,6.39
2019-05-17T02:18:33.723Z,6.40
2019-05-17T02:21:06.558Z,6.44
2019-05-17T02:23:37.900Z,6.49
2019-05-17T02:26:08.972Z,6.47
2019-05-17T02:28:41.456Z,6.46
2019-05-17T02:31:13.348Z,6.40
2019-05-17T02:33:46.211Z,6.30
2019-05-17T02:36:17.334Z,6.23
2019-05-17T02:38:47.447Z,6.39
2019-05-17T02:41:18.692Z,6.42
2019-05-17T02:43:53.212Z,6.43
2019-05-17T02:46:23.181Z,6.42
2019-05-17T02:48:54.237Z,6.31
2019-05-17T02:51:25.311Z,6.29
2019-05-17T02:53:56.295Z,6.22
2019-05-17T02:56:27.545Z,6.17
2019-05-17T02:58:58.419Z,6.22
2019-05-17T03:01:32.847Z,6.21
2019-05-17T03:04:03.832Z,6.16
2019-05-17T03:06:35.405Z,6.07
2019-05-17T03:09:06.878Z,6.00
2019-05-17T03:11:36.947Z,5.98
2019-05-17T03:14:08.194Z,5.95
2019-05-17T03:16:39.159Z,5.92
2019-05-17T03:19:13.029Z,5.93
2019-05-17T03:21:43.298Z,5.93
2019-05-17T03:24:14.425Z,5.88
2019-05-17T03:26:45.361Z,5.86
2019-05-17T03:29:16.643Z,5.91
2019-05-17T03:31:58.018Z,5.97
2019-05-17T03:34:26.279Z,6.06
2019-05-17T03:36:56.795Z,6.09
2019-05-17T03:39:28.522Z,6.11
2019-05-17T03:42:02.425Z,6.10
2019-05-17T03:44:33.537Z,6.08
2019-05-17T03:47:05.362Z,6.09
2019-05-17T03:49:39.168Z,6.12
2019-05-17T03:52:08.359Z,6.13
2019-05-17T03:54:39.303Z,6.15
2019-05-17T03:57:13.344Z,6.21
2019-05-17T03:59:43.289Z,6.28
2019-05-17T04:02:14.592Z,6.39
2019-05-17T04:04:45.574Z,6.47
2019-05-17T04:07:16.698Z,6.51
2019-05-17T04:09:47.731Z,6.58
2019-05-17T04:12:19.064Z,6.65
2019-05-17T04:14:53.077Z,6.66
2019-05-17T04:17:23.117Z,6.71
2019-05-17T04:19:54.056Z,6.74
2019-05-17T04:22:24.124Z,6.82
2019-05-17T04:24:55.432Z,6.86
2019-05-17T04:27:26.499Z,6.93
2019-05-17T04:29:57.687Z,6.98
2019-05-17T04:32:28.724Z,7.00
2019-05-17T04:35:03.319Z,7.00
2019-05-17T04:37:34.004Z,7.09
2019-05-17T04:40:07.060Z,7.15
2019-05-17T04:42:38.095Z,7.13
2019-05-17T04:45:12.452Z,7.20
2019-05-17T04:47:44.209Z,7.25
2019-05-17T04:50:23.065Z,7.33
2019-05-17T04:52:54.047Z,7.34
2019-05-17T04:55:25.237Z,7.42
2019-05-17T04:58:07.475Z,7.53
2019-05-17T05:00:46.314Z,7.66
2019-05-17T05:09:23.954Z,7.88
2019-05-17T05:12:01.192Z,7.86
2019-05-17T05:14:32.727Z,7.77
2019-05-17T05:17:02.392Z,7.69
2019-05-17T05:19:33.135Z,7.64
2019-05-17T05:22:04.877Z,7.68
2019-05-17T05:24:36.215Z,7.74
2019-05-17T05:27:07.204Z,7.82
2019-05-17T05:29:38.509Z,7.96
2019-05-17T05:32:11.675Z,8.11
2019-05-17T05:34:42.920Z,8.23
2019-05-17T05:37:14.824Z,8.30
2019-05-17T05:39:46.128Z,8.36
2019-05-17T05:42:17.228Z,8.46
2019-05-17T05:44:48.561Z,8.67
2019-05-17T05:47:19.527Z,8.79
2019-05-17T05:49:52.048Z,9.00
2019-05-17T05:52:23.052Z,9.14
2019-05-17T05:54:53.108Z,10.58
2019-05-17T05:57:24.280Z,9.82
2019-05-17T05:59:55.805Z,10.49
2019-05-17T06:02:27.180Z,11.02
2019-05-17T06:04:58.170Z,10.66
2019-05-17T06:07:32.047Z,10.64
2019-05-17T06:10:02.391Z,10.11
2019-05-17T06:12:33.716Z,10.31
2019-05-17T06:15:08.780Z,10.20
2019-05-17T06:17:43.272Z,10.42
2019-05-17T06:20:15.240Z,11.87
2019-05-17T06:22:46.390Z,11.18
2019-05-17T06:25:17.525Z,11.95
2019-05-17T06:27:47.658Z,12.34
2019-05-17T06:30:21.819Z,12.94
2019-05-17T06:32:52.336Z,12.54
2019-05-17T06:35:23.618Z,12.14
2019-05-17T06:37:54.586Z,12.32
2019-05-17T06:40:25.873Z,12.06
2019-05-17T06:42:56.901Z,12.06
2019-05-17T06:45:28.284Z,13.22
2019-05-17T06:47:59.266Z,12.63
2019-05-17T06:50:32.602Z,14.44
2019-05-17T06:53:12.638Z,13.13
2019-05-17T06:55:44.074Z,13.08
2019-05-17T06:58:15.124Z,12.46
2019-05-17T07:00:45.282Z,12.25
2019-05-17T07:03:16.513Z,13.20
2019-05-17T07:05:50.234Z,14.80
2019-05-17T07:08:30.100Z,14.92
2019-05-17T07:11:03.395Z,14.67
2019-05-17T07:13:34.564Z,14.72
2019-05-17T07:16:05.604Z,14.39
2019-05-17T07:18:36.798Z,14.25
2019-05-17T07:21:10.032Z,14.78
2019-05-17T07:23:41.166Z,14.58
2019-05-17T07:26:12.215Z,14.72
2019-05-17T07:28:43.470Z,14.47
2019-05-17T07:31:14.555Z,14.04
2019-05-17T07:33:45.654Z,13.90
2019-05-17T07:36:16.758Z,13.89
2019-05-17T07:38:46.916Z,14.37
2019-05-17T07:41:20.273Z,14.66
2019-05-17T07:43:50.909Z,14.21
2019-05-17T07:46:22.096Z,14.74
2019-05-17T07:48:53.094Z,15.52
2019-05-17T07:51:24.216Z,15.23
2019-05-17T07:53:55.140Z,15.73
2019-05-17T07:56:26.364Z,16.14
2019-05-17T07:58:57.335Z,16.65
2019-05-17T08:01:29.685Z,16.25
2019-05-17T08:04:00.912Z,15.33
2019-05-17T08:06:32.066Z,15.43
2019-05-17T08:09:04.541Z,15.41
2019-05-17T08:11:34.776Z,15.42
2019-05-17T08:14:06.148Z,15.72
2019-05-17T08:16:39.370Z,16.08
2019-05-17T08:19:10.132Z,15.76
2019-05-17T08:21:41.113Z,15.55
2019-05-17T08:24:12.372Z,15.03
2019-05-17T08:26:43.322Z,15.17
2019-05-17T08:29:14.570Z,15.52
2019-05-17T08:31:45.435Z,16.04
2019-05-17T08:34:16.622Z,15.63
2019-05-17T08:36:49.819Z,15.64
2019-05-17T08:39:20.744Z,15.37
2019-05-17T08:41:51.713Z,15.42
2019-05-17T08:44:22.931Z,15.13
2019-05-17T08:46:53.940Z,15.77
2019-05-17T08:49:24.055Z,16.30
2019-05-17T08:51:59.471Z,16.39
2019-05-17T08:54:32.829Z,16.20
2019-05-17T08:57:04.083Z,15.71
2019-05-17T08:59:35.070Z,15.58
2019-05-17T09:02:06.234Z,15.41
2019-05-17T09:04:37.153Z,15.23
2019-05-17T09:07:09.462Z,14.93
2019-05-17T09:09:40.495Z,14.96
2019-05-17T09:12:11.828Z,15.21
2019-05-17T09:14:42.813Z,15.37
2019-05-17T09:17:14.002Z,15.70
2019-05-17T09:19:44.996Z,15.57
2019-05-17T09:22:15.108Z,15.18
2019-05-17T09:24:46.217Z,14.96
2019-05-17T09:27:19.598Z,14.76
2019-05-17T09:29:50.023Z,14.87
2019-05-17T09:32:21.015Z,15.09
2019-05-17T09:34:52.211Z,15.38
2019-05-17T09:37:23.109Z,15.14
2019-05-17T09:39:54.237Z,15.65
2019-05-17T09:42:25.173Z,15.79
2019-05-17T09:44:56.609Z,15.99
2019-05-17T09:47:29.943Z,15.97
2019-05-17T09:50:00.761Z,16.04
2019-05-17T09:52:31.690Z,15.80
2019-05-17T09:55:01.748Z,15.39
2019-05-17T09:57:32.877Z,15.68
2019-05-17T10:00:05.673Z,15.82
2019-05-17T10:02:36.831Z,16.16
2019-05-17T10:05:10.569Z,16.22
2019-05-17T10:07:41.798Z,16.17
2019-05-17T10:10:12.998Z,16.25
2019-05-17T10:12:44.228Z,16.78
2019-05-17T10:15:15.255Z,16.56
2019-05-17T10:17:46.556Z,17.02
2019-05-17T10:20:19.848Z,16.67
2019-05-17T10:22:50.675Z,16.47
2019-05-17T10:25:21.663Z,16.40
2019-05-17T10:27:52.917Z,16.92
2019-05-17T10:30:23.985Z,17.37
2019-05-17T10:32:54.780Z,18.07
2019-05-17T10:35:26.053Z,18.12
2019-05-17T10:37:59.363Z,18.24
2019-05-17T10:40:30.106Z,17.77
2019-05-17T10:43:01.146Z,17.44
2019-05-17T10:45:32.386Z,17.58
2019-05-17T10:48:03.421Z,18.29
2019-05-17T10:50:34.532Z,19.10
2019-05-17T10:53:05.567Z,19.24
2019-05-17T10:55:36.960Z,20.52
2019-05-17T10:58:10.030Z,20.58
2019-05-17T11:00:41.619Z,20.59
2019-05-17T11:03:12.858Z,20.73
2019-05-17T11:05:42.933Z,20.11
2019-05-17T11:08:14.055Z,20.09
2019-05-17T11:10:45.120Z,20.59
2019-05-17T11:13:16.290Z,20.94
2019-05-17T11:15:47.389Z,20.85
2019-05-17T11:18:18.789Z,21.61
2019-05-17T11:20:49.740Z,19.99
2019-05-17T11:23:20.905Z,19.66
2019-05-17T11:25:51.918Z,19.96
2019-05-17T11:28:23.383Z,19.96
2019-05-17T11:30:54.413Z,20.07
2019-05-17T11:33:24.480Z,20.22
2019-05-17T11:35:55.646Z,21.06
2019-05-17T11:38:26.748Z,20.58
2019-05-17T11:40:57.852Z,20.57
2019-05-17T11:43:28.819Z,19.99
2019-05-17T11:46:00.142Z,18.99
2019-05-17T11:48:31.126Z,20.37
2019-05-17T11:51:02.361Z,20.82
2019-05-17T11:53:33.363Z,22.12
2019-05-17T11:56:04.606Z,23.41
2019-05-17T11:58:35.540Z,23.67
2019-05-17T12:01:06.814Z,23.17
2019-05-17T12:03:37.894Z,21.84
2019-05-17T12:06:08.101Z,22.15
2019-05-17T12:08:39.355Z,22.82
2019-05-17T12:11:10.310Z,21.41
2019-05-17T12:13:43.622Z,20.95
2019-05-17T12:16:14.582Z,22.54
2019-05-17T12:18:48.811Z,22.37
2019-05-17T12:21:19.823Z,21.89
2019-05-17T12:23:50.986Z,21.65
2019-05-17T12:26:21.936Z,21.98
2019-05-17T12:28:53.148Z,21.28
2019-05-17T12:31:24.034Z,21.07
2019-05-17T12:33:55.222Z,22.55
2019-05-17T12:36:26.334Z,22.94
2019-05-17T12:38:57.517Z,23.91
2019-05-17T12:41:28.494Z,24.52
2019-05-17T12:43:58.564Z,25.64
2019-05-17T12:46:29.874Z,25.00
2019-05-17T12:49:02.073Z,23.76
2019-05-17T12:51:33.602Z,23.67
2019-05-17T12:54:04.684Z,23.09
2019-05-17T12:56:35.943Z,22.13
2019-05-17T12:59:07.012Z,22.21
2019-05-17T13:01:38.202Z,23.48
2019-05-17T13:04:09.109Z,24.34
2019-05-17T13:06:40.259Z,24.81
2019-05-17T13:09:11.202Z,24.43
2019-05-17T13:11:42.368Z,23.83
2019-05-17T13:14:13.331Z,23.88
2019-05-17T13:16:44.582Z,24.73
2019-05-17T13:19:15.743Z,25.53
2019-05-17T13:21:46.703Z,26.22
2019-05-17T13:24:17.941Z,26.02
2019-05-17T13:26:48.918Z,24.46
2019-05-17T13:29:20.121Z,24.77
2019-05-17T13:31:51.183Z,24.77
2019-05-17T13:34:22.495Z,24.77
2019-05-17T13:36:56.532Z,24.20
2019-05-17T13:39:27.655Z,25.20
2019-05-17T13:41:58.631Z,25.56
2019-05-17T13:44:29.865Z,25.75
2019-05-17T13:47:00.909Z,23.62
2019-05-17T13:49:31.040Z,23.48
2019-05-17T13:52:02.478Z,23.48
2019-05-17T13:54:33.485Z,24.05
2019-05-17T13:57:04.703Z,24.36
2019-05-17T13:59:37.323Z,23.23
2019-05-17T14:02:08.578Z,23.23
2019-05-17T14:04:39.549Z,22.45
2019-05-17T14:07:10.798Z,22.45
2019-05-17T14:09:41.918Z,21.61
2019-05-17T14:12:13.134Z,21.82
2019-05-17T14:14:44.098Z,22.70
2019-05-17T14:17:15.414Z,22.93
2019-05-17T14:19:46.276Z,23.46
2019-05-17T14:22:16.471Z,23.86
2019-05-17T14:24:47.720Z,24.27
2019-05-17T14:27:18.801Z,24.51
2019-05-17T14:29:50.008Z,24.76
2019-05-17T14:32:20.955Z,24.95
2019-05-17T14:34:52.125Z,23.65
2019-05-17T14:37:23.125Z,23.24
2019-05-17T14:39:54.508Z,24.64
2019-05-17T14:42:25.827Z,23.02
2019-05-17T14:44:58.709Z,22.03
2019-05-17T14:47:29.736Z,22.78
2019-05-17T14:50:01.075Z,23.59
2019-05-17T14:52:31.949Z,23.75
2019-05-17T14:55:02.342Z,24.04
2019-05-17T14:57:35.282Z,24.76
2019-05-17T15:00:07.731Z,24.56
2019-05-17T15:02:38.958Z,24.42
2019-05-17T15:05:10.305Z,23.56
2019-05-17T15:07:41.518Z,24.28
2019-05-17T15:10:12.928Z,24.58
2019-05-17T15:12:44.157Z,24.63
2019-05-17T15:15:25.688Z,24.56
2019-05-17T15:17:47.964Z,24.30
2019-05-17T15:20:19.097Z,23.64
2019-05-17T15:22:50.361Z,22.63
2019-05-17T15:25:21.270Z,22.61
2019-05-17T15:27:52.481Z,22.93
2019-05-17T15:30:23.518Z,23.13
2019-05-17T15:32:54.273Z,23.27
2019-05-17T15:35:25.423Z,23.83
2019-05-17T15:37:56.437Z,23.71
2019-05-17T15:40:27.766Z,23.43
2019-05-17T15:42:58.714Z,23.25
2019-05-17T15:45:29.967Z,23.65
2019-05-17T15:48:01.042Z,24.09
2019-05-17T15:50:32.302Z,22.81
2019-05-17T15:53:03.380Z,22.50
2019-05-17T15:55:34.439Z,22.99
2019-05-17T15:58:05.517Z,22.82
2019-05-17T16:00:36.731Z,23.21
2019-05-17T16:03:07.758Z,23.52
2019-05-17T16:05:37.872Z,22.90
2019-05-17T16:08:09.020Z,22.91
2019-05-17T16:10:40.173Z,23.26
2019-05-17T16:13:11.551Z,23.63
2019-05-17T16:15:42.513Z,23.22
2019-05-17T16:18:13.595Z,22.68
2019-05-17T16:20:44.654Z,21.69
2019-05-17T16:23:16.022Z,21.47
2019-05-17T16:25:47.048Z,21.27
2019-05-17T16:28:18.511Z,20.87
2019-05-17T16:30:49.567Z,20.49
2019-05-17T16:33:20.792Z,20.61
2019-05-17T16:35:51.825Z,21.14
2019-05-17T16:38:21.962Z,21.70
2019-05-17T16:40:53.245Z,22.30
2019-05-17T16:43:24.196Z,22.48
2019-05-17T16:45:55.362Z,21.90
2019-05-17T16:48:26.242Z,21.53
2019-05-17T16:50:57.572Z,21.75
2019-05-17T16:53:28.516Z,21.61
2019-05-17T16:56:00.548Z,21.95
2019-05-17T16:58:31.536Z,21.68
2019-05-17T17:01:03.747Z,21.52
2019-05-17T17:03:44.200Z,21.01
2019-05-17T17:06:10.291Z,20.32
2019-05-17T17:08:41.964Z,19.89
2019-05-17T17:11:12.206Z,19.52
2019-05-17T17:13:43.476Z,19.45
2019-05-17T17:16:14.490Z,19.70
2019-05-17T17:18:45.717Z,19.79
2019-05-17T17:21:16.684Z,20.00
2019-05-17T17:23:48.004Z,20.00
2019-05-17T17:26:18.946Z,20.14
2019-05-17T17:28:50.211Z,19.92
2019-05-17T17:31:21.395Z,19.85
2019-05-17T17:33:52.809Z,20.04
2019-05-17T17:36:24.436Z,20.22
2019-05-17T17:38:55.543Z,20.08
2019-05-17T17:41:26.884Z,19.90
2019-05-17T17:43:59.204Z,19.94
2019-05-17T17:46:30.301Z,19.76
2019-05-17T17:49:01.471Z,19.37
2019-05-17T17:51:32.764Z,19.06
2019-05-17T17:54:03.678Z,18.88
2019-05-17T17:56:34.891Z,18.75
2019-05-17T17:59:06.000Z,18.52
2019-05-17T18:01:37.340Z,18.45
2019-05-17T18:04:08.380Z,18.33
2019-05-17T18:06:39.608Z,18.31
2019-05-17T18:09:10.589Z,18.23
2019-05-17T18:11:41.912Z,18.11
2019-05-17T18:14:13.966Z,17.96
2019-05-17T18:16:44.373Z,17.86
2019-05-17T18:19:15.531Z,17.76
2019-05-17T18:21:46.595Z,17.65
2019-05-17T18:24:17.897Z,17.55
2019-05-17T18:26:48.815Z,17.47
2019-05-17T18:29:20.161Z,17.41
2019-05-17T18:31:51.261Z,17.34
2019-05-17T18:34:22.440Z,17.27
2019-05-17T18:36:53.423Z,17.15
2019-05-17T18:39:24.652Z,17.06
2019-05-17T18:41:55.775Z,16.93
2019-05-17T18:44:28.195Z,16.86
2019-05-17T18:46:59.386Z,16.76
2019-05-17T18:49:29.394Z,16.64
2019-05-17T18:52:00.647Z,16.58
2019-05-17T18:54:31.611Z,16.47
2019-05-17T18:57:02.834Z,16.35
2019-05-17T18:59:33.748Z,16.27
2019-05-17T19:02:05.129Z,16.17
2019-05-17T19:04:36.173Z,16.12
2019-05-17T19:07:07.470Z,16.06
2019-05-17T19:09:38.465Z,15.99
2019-05-17T19:12:09.637Z,15.97
2019-05-17T19:14:43.060Z,15.96
2019-05-17T19:17:13.363Z,15.93
2019-05-17T19:19:44.341Z,15.84
2019-05-17T19:22:14.536Z,15.75
2019-05-17T19:24:45.779Z,15.66
2019-05-17T19:27:16.689Z,15.58
2019-05-17T19:29:47.840Z,15.46
2019-05-17T19:32:18.868Z,15.40
2019-05-17T19:34:50.101Z,15.36
2019-05-17T19:37:21.712Z,15.30
2019-05-17T19:39:52.951Z,15.21
2019-05-17T19:42:23.957Z,15.23
2019-05-17T19:44:59.199Z,15.17
2019-05-17T19:47:27.907Z,15.09
2019-05-17T19:49:59.109Z,15.01
2019-05-17T19:52:30.093Z,14.95
2019-05-17T19:55:00.211Z,14.85
2019-05-17T19:57:31.360Z,14.76
2019-05-17T20:00:02.379Z,14.66
2019-05-17T20:02:33.603Z,14.61
2019-05-17T20:05:06.582Z,14.56
2019-05-17T20:07:39.392Z,14.55
2019-05-17T20:10:12.748Z,14.46
2019-05-17T20:12:44.080Z,14.36
2019-05-17T20:15:17.801Z,14.34
2019-05-17T20:17:48.413Z,14.33
2019-05-17T20:20:19.576Z,14.28
2019-05-17T20:22:50.908Z,14.22
2019-05-17T20:25:21.940Z,14.15
2019-05-17T20:27:53.098Z,14.10
2019-05-17T20:30:24.110Z,14.02
2019-05-17T20:32:54.322Z,14.02
2019-05-17T20:35:25.584Z,14.03
2019-05-17T20:37:56.453Z,13.96
2019-05-17T20:40:27.720Z,13.86
2019-05-17T20:42:58.757Z,13.80
2019-05-17T20:45:33.100Z,13.70
2019-05-17T20:48:02.775Z,13.69
2019-05-17T20:50:34.095Z,13.65
2019-05-17T20:53:18.004Z,13.64
2019-05-17T20:55:37.962Z,13.60
2019-05-17T20:58:09.009Z,13.58
2019-05-17T21:00:40.184Z,13.59
2019-05-17T21:03:13.853Z,13.54
2019-05-17T21:05:43.010Z,13.52
2019-05-17T21:08:14.146Z,13.52
2019-05-17T21:10:46.928Z,13.48
2019-05-17T21:13:18.100Z,13.44
2019-05-17T21:15:49.062Z,13.37
2019-05-17T21:18:20.246Z,13.34
2019-05-17T21:20:51.222Z,13.25
2019-05-17T21:23:22.526Z,13.18
2019-05-17T21:25:53.451Z,13.15
2019-05-17T21:28:24.653Z,13.12
2019-05-17T21:30:55.622Z,13.03
2019-05-17T21:33:26.776Z,12.94
2019-05-17T21:35:57.661Z,12.87
2019-05-17T21:38:27.780Z,12.80
2019-05-17T21:40:58.944Z,12.74
2019-05-17T21:43:29.960Z,12.71
2019-05-17T21:46:04.067Z,12.66
2019-05-17T21:48:33.781Z,12.57
2019-05-17T21:51:05.094Z,12.52
2019-05-17T21:53:35.968Z,12.43
2019-05-17T21:56:07.271Z,12.31
2019-05-17T21:58:38.280Z,12.20
2019-05-17T22:01:16.533Z,12.12
2019-05-17T22:03:47.570Z,12.10
2019-05-17T22:06:18.946Z,12.12
2019-05-17T22:08:49.968Z,12.07
2019-05-17T22:11:21.123Z,12.01
2019-05-17T22:13:52.214Z,11.91
2019-05-17T22:16:22.427Z,11.78
2019-05-17T22:18:53.610Z,11.69
2019-05-17T22:21:24.510Z,11.60
2019-05-17T22:23:55.714Z,11.55
2019-05-17T22:26:26.766Z,11.55
2019-05-17T22:28:57.910Z,11.48
2019-05-17T22:31:28.945Z,11.48
2019-05-17T22:34:00.179Z,11.41
2019-05-17T22:36:31.130Z,11.31
2019-05-17T22:39:02.287Z,11.27
2019-05-17T22:41:33.273Z,11.23
2019-05-17T22:44:04.553Z,11.21
2019-05-17T22:46:36.658Z,11.14
2019-05-17T22:49:06.909Z,11.09
2019-05-17T22:51:38.093Z,11.01
2019-05-17T22:54:09.053Z,10.92
2019-05-17T22:56:40.368Z,10.81
2019-05-17T22:59:11.217Z,10.73
2019-05-17T23:01:42.395Z,10.67
2019-05-17T23:04:13.373Z,10.62
2019-05-17T23:06:44.521Z,10.61
2019-05-17T23:09:15.475Z,10.56
2019-05-17T23:11:46.799Z,10.50
2019-05-17T23:14:17.769Z,10.46
2019-05-17T23:16:51.929Z,10.39
2019-05-17T23:19:21.733Z,10.30
2019-05-17T23:21:51.835Z,10.26
2019-05-17T23:24:23.085Z,10.21
2019-05-17T23:26:54.096Z,10.22
2019-05-17T23:29:25.290Z,10.19
2019-05-17T23:31:56.281Z,10.18
2019-05-17T23:34:27.424Z,10.15
2019-05-17T23:36:58.388Z,10.07
2019-05-17T23:39:29.733Z,10.09
2019-05-17T23:42:00.738Z,10.11
2019-05-17T23:44:32.009Z,10.10
2019-05-17T23:47:07.147Z,10.04
2019-05-17T23:49:36.054Z,9.98
2019-05-17T23:52:07.042Z,9.94
2019-05-17T23:54:37.106Z,9.85
2019-05-17T23:57:08.182Z,9.79
2019-05-17T23:59:39.167Z,9.67
